Pagrindinis puslapis
METAR-TAF:

METAR-TAF

Oro uostai :

Pirassununga, San Paulas, Brazilija

platuma: 21-59S, ilguma: 047-20W, Aukštis: 597 m

Dabartinis oras

Ataskaita buvo paskelbta 39 minutes, ne 22:00 UTC
Ramus vėjas
Temperatūra 24°C
Drėgmė 54%
Slėgis 1015 hPa
Matomumas 10 km arba daugiau
nėra debesų žemiau 1500 m ir nėra kamuolinių lietaus debesų

METAR: SBYS 162200Z 00000KT CAVOK 24/14 Q1015

Laikas: 19:39 (22:39 UTC)

Prognozė

Ataskaita buvo paskelbta 6 valandos ir 39 minutes, ne 16:00 UTC
Prognozė galioja nuo 16 metu 18 UTC su 17 metu 06 UTC
Vėjas 5 kt iš Šiaurės/Šiaurės Rytų
Matomumas 10 km arba daugiau
nėra debesų žemiau 1500 m ir nėra kamuolinių lietaus debesų
Tapsmas
nuo 16 metu 21 UTC su 16 metu 23 UTC
Vėjas 3 kt iš Rytų
Tapsmas
nuo 17 metu 02 UTC su 17 metu 04 UTC
Vėjas 3 kt iš Pietų/Pietvakarių
Matomumas: 8000 m

TAF: SBYS 161600Z 1618/1706 03005KT CAVOK TX33/1618Z TN16/1705Z BECMG 1621/1623 09003KT BECMG 1702/1704 20003KT 8000 NSC RMK PAY

Orai ataskaitas ir orų prognozės (METAR, TAF).

turimą stotys yra geltonos ir raudonos taškus žemėlapyje.

Perkelti pele per norėdami pamatyti stoties vardą.

Tada spustelėkite, norėdami matyti oro stebėjimo ir prognozės.

Norėdami pakeisti žemėlapį: spustelėkite ant žalios mygtukų su juodo kryžiaus žemyn,; žalią mygtuką su brūkšneliu, jei norite nutolinti; arba žalių rodyklių gretimoms žemėlapius.


METAR-TAF: